Evans, WA

4:28 AM PST on December 27, 2014 (GMT -0800)
ECHO PEAK - W6SQ | Change Station
CLOSE
Current Station
Personal Weather Station
Location: Colville, WA
Elevation: 1918 ft
Nearby Weather Stations
Active Advisory: Winter Storm Warning

Elev 1918 ft 48.66 °N, 117.94 °W | Updated 10 seconds ago

Overcast
Overcast
26.6 °F
Feels Like 27 °F
N
0.0
Wind Variable Wind from North
Gusts 0.0 mph

Today
High -- | Low -- °F
--% Chance of Precip.
Yesterday
High -- | Low -- °F
Precip. -- in
7:44 AM 4:02 PM
Waxing Crescent, 36% visible
Pressure 30.30 in
Visibility 7.0 miles
Clouds Overcast 2000 ft
Windchill 27 °F
Dew Point 26 °F
Humidity 99%
Rainfall 0.00 in
Snow Depth Not available.
UV 0.0 out of 12
Pollen .10 out of 12
Air Quality Not available.
Flu Activity Not available.
METAR KDEW 271153Z AUTO 03003KT 7SM OVC020 M02/M03 A3022 RMK AO2 SLP259 I1000 I6001 T10221033 11022 21028 58006

More Conditions Fewer Conditions

Pressure 30.30 in
Visibility 7.0 miles
Clouds Overcast 2000 ft
Windchill 27 °F
Dew Point 26 °F
Humidity 99%
Rainfall 0.00 in
Snow Depth Not available.
UV 0.0 out of 12
Pollen .10 out of 12
Air Quality Not available.
Flu Activity Not available.
METAR KDEW 271153Z AUTO 03003KT 7SM OVC020 M02/M03 A3022 RMK AO2 SLP259 I1000 I6001 T10221033 11022 21028 58006

More Conditions Fewer Conditions

10-Day Weather Forecast

Almanac

Astronomy

Dec. 27, 2014 Rise Set
Actual Time
Civil Twilight
Nautical Twilight
Astronomical Twilight
Moon
Length of Visible Light
Length of Day
Tomorrow will be .
, % of the Moon is Illuminated

Today's Extremes

State Highs State Lows

Community

WunderPhotos

Upload Photos

1,780,886 photos uploaded!

WunderBlogs® & News

Nearby

Air Quality

  Air Quality AQ Index Pollutant
Not available.

Snow Depth

Station Depth Elevation

Earthquake Activity

City Distance Mag. Time & Date
Minimum magnitude displayed is 2.5.

Coastal Water Temperatures

Place Temperature

Nearby Weather Stations